Latest Coastal Weather Observations for King Island Airport

IDV60701

Issued at 6:51 pm EDT Friday 12 February 2016 (issued every 10 minutes, with the page automatically refreshed every 10 minutes)

About coastal observations | Map of coastal stations | Coastal observations for VIC | Marine services | Other Formats
Station Details ID: 098017 Name: KING ISLAND AIRPORT Lat: -39.88 Lon: 143.88 Height: 37.0 m
Data from the previous 72 hours. | See also: Recent months at King Island Airport
Date/Time
EDT
Temp

°C
Wind Pressure Rain
since 9am
mm
Weather Cloud Vis
km
Sea
Height
m
Swell
Dir
 
Speed
knots
Gust
knots
hPa Trend Height
m
Period
s
Dir
12/06:30pm 19.6 SW 5 7 1012.8 - 0.0 - - 10 - - - -
12/06:00pm 19.5 SW 5 8 1013.0 - 0.0 - - 10 - - - -
12/05:30pm 19.0 W 9 13 1013.6 - 0.0 - - 10 - - - -
12/05:00pm 19.4 W 11 15 1014.0 - 0.0 - - 10 - - - -
12/04:30pm 19.9 W 10 14 1013.9 - 0.0 - Partly cloudy 10 - - - -
12/04:00pm 20.2 WSW 7 9 1013.9 - 0.0 - Partly cloudy 10 - - - -
12/03:30pm 19.9 W 10 15 1014.4 - 0.0 - Partly cloudy 10 - - - -
12/03:00pm 20.1 W 10 15 1014.7 - 0.0 - Partly cloudy 10 - - - -
12/02:30pm 20.2 WSW 10 15 1014.8 - 0.0 - Partly cloudy 10 - - - -
12/02:00pm 20.0 WSW 10 15 1015.0 - 0.0 - - 10 - - - -
12/01:30pm 19.6 WSW 11 16 1015.2 - 0.0 - - 10 - - - -
12/01:00pm 20.3 SW 8 16 1015.4 - 0.0 - Partly cloudy 10 - - - -
12/12:30pm 20.5 SSW 7 14 1015.5 - 0.0 - Partly cloudy 10 - - - -
12/12:00pm 19.7 SSW 9 15 1016.3 - 0.0 - Mostly clear 10 - - - -
12/11:30am 18.8 SW 6 10 1016.6 - 0.0 - Partly cloudy 10 - - - -
12/11:00am 19.0 S 7 10 1016.8 - 0.0 - Partly cloudy 10 - - - -
12/10:30am 18.9 S 8 12 1017.2 - 0.0 - - 10 - - - -
12/10:00am 18.3 SSW 9 15 1017.2 - 0.0 - Partly cloudy 10 - - - -
12/09:30am 18.0 SSW 8 11 1017.3 - 0.0 - Partly cloudy 10 - - - -
12/09:00am 17.5 SSW 7 9 1017.5 - 0.0 - - 10 - - - -
12/08:30am 16.2 CALM 0 0 1017.4 - 0.0 - - 10 - - - -
12/08:00am 12.9 CALM 0 0 1017.3 - 0.0 - - 10 - - - -
12/07:30am 11.7 SSE 3 4 1017.1 - 0.0 - - 10 - - - -
12/07:00am 9.1 CALM 0 0 1016.8 - 0.0 - - 10 - - - -
12/06:30am 9.8 CALM 0 0 1016.5 - 0.0 - - 10 - - - -
12/06:00am 10.2 CALM 0 0 1016.5 - 0.0 - - 10 - - - -
12/05:30am 9.4 CALM 0 0 1016.5 - 0.0 - - 10 - - - -
12/05:00am 8.8 CALM 0 0 1016.8 - 0.0 - - 10 - - - -
12/04:30am 10.5 CALM 0 0 1017.0 - 0.0 - - 10 - - - -
12/04:00am 9.8 CALM 0 0 1016.9 - 0.0 - - 10 - - - -
12/03:30am 10.7 SSE 1 4 1017.3 - 0.0 - - 10 - - - -
12/03:00am 10.5 CALM 0 0 1017.4 - 0.0 - Mostly clear 10 - - - -
12/02:30am 10.8 CALM 0 0 1017.9 - 0.0 - - 10 - - - -
12/02:00am 12.9 SSW 5 5 1018.1 - 0.0 - - 10 - - - -
12/01:30am 12.0 CALM 0 0 1018.3 - 0.0 - - 10 - - - -
12/01:00am 12.5 CALM 0 0 1018.5 - 0.0 - - 10 - - - -
12/12:30am 13.6 SSE 5 6 1018.4 - 0.0 - - 10 - - - -
12/12:00am 13.7 S 4 5 1018.6 - 0.0 - Mostly cloudy 10 - - - -
 
Date/Time
EDT
Temp

°C
Wind Pressure Rain
since 9am
mm
Weather Cloud Vis
km
Sea
Height
m
Swell
Dir
 
Speed
knots
Gust
knots
hPa Trend Height
m
Period
s
Dir
11/11:30pm 13.8 SSE 5 6 1018.7 - 0.0 - - 10 - - - -
11/11:00pm 13.4 SSE 5 6 1018.8 - 0.0 - - 10 - - - -
11/10:30pm 13.7 SSE 4 6 1018.7 - 0.0 - - 10 - - - -
11/10:00pm 14.1 SSE 6 7 1018.4 - 0.0 - - 10 - - - -
11/09:30pm 14.7 S 6 8 1018.2 - 0.0 - - 10 - - - -
11/09:00pm 15.6 S 7 10 1018.1 - 0.0 - - 10 - - - -
11/08:30pm 16.7 S 9 15 1018.0 - 0.0 - Partly cloudy 10 - - - -
11/08:00pm 17.6 SSW 13 18 1017.9 - 0.0 - Partly cloudy 10 - - - -
11/07:30pm 17.7 SSW 13 17 1017.5 - 0.0 - - 10 - - - -
11/07:00pm 18.6 SSW 15 19 1017.2 - 0.0 - - 10 - - - -
11/06:30pm 19.0 SSW 12 16 1016.8 - 0.0 - - 10 - - - -
11/06:00pm 19.2 SSW 13 18 1016.8 - 0.0 - - 10 - - - -
11/05:30pm 19.4 SSW 13 17 1017.0 - 0.0 - - 10 - - - -
11/05:00pm 20.5 SSW 13 17 1017.0 - 0.0 - - 10 - - - -
11/04:30pm 21.0 SSW 10 15 1016.9 - 0.0 - - 10 - - - -
11/04:00pm 20.1 SSW 11 16 1016.9 - 0.0 - - 10 - - - -
11/03:30pm 20.6 SW 13 18 1017.2 - 0.0 - - 10 - - - -
11/03:00pm 20.7 SW 16 21 1017.4 - 0.0 - - 10 - - - -
11/02:30pm 20.2 SW 14 19 1017.5 - 0.0 - - 10 - - - -
11/02:00pm 20.7 SW 15 19 1017.7 - 0.0 - - 10 - - - -
11/01:30pm 20.9 SW 11 16 1017.5 - 0.0 - - 10 - - - -
11/01:00pm 20.9 SW 10 15 1017.7 - 0.0 - - 10 - - - -
11/12:30pm 20.5 SW 10 14 1017.6 - 0.0 - - 10 - - - -
11/12:00pm 19.9 SSW 8 13 1017.7 - 0.0 - - 10 - - - -
11/11:30am 19.6 SW 8 13 1017.8 - 0.0 - Partly cloudy 10 - - - -
11/11:00am 19.8 SSW 9 14 1017.9 - 0.0 - Partly cloudy 10 - - - -
11/10:30am 18.8 SSW 14 18 1018.2 - 0.0 - Partly cloudy 10 - - - -
11/10:00am 19.8 SSW 12 17 1018.3 - 0.0 - Partly cloudy 10 - - - -
11/09:30am 19.2 S 8 13 1018.1 - 0.0 - Partly cloudy 10 - - - -
11/09:00am 19.0 S 8 11 1017.8 - 0.0 - Mostly clear 10 - - - -
11/08:30am 18.4 SSW 9 11 1017.5 - 0.0 - - 10 - - - -
11/08:00am 17.4 SSW 6 7 1017.2 - 0.0 - - 10 - - - -
11/07:30am 16.3 S 5 7 1017.0 - 0.0 - - 10 - - - -
11/07:00am 15.3 S 5 6 1016.8 - 0.0 - - 10 - - - -
11/06:30am 15.6 S 5 6 1016.6 - 0.0 - - 10 - - - -
11/06:00am 16.9 S 7 10 1016.3 - 0.0 - Mostly cloudy 10 - - - -
11/05:30am 17.1 SSW 8 10 1016.1 - 0.0 - Partly cloudy 10 - - - -
11/05:00am 16.8 SSW 7 8 1015.8 - 0.0 - Partly cloudy 10 - - - -
11/04:30am 16.7 SW 8 10 1015.7 - 0.0 - Partly cloudy 10 - - - -
11/04:00am 13.7 CALM 0 0 1015.7 - 0.0 - Partly cloudy 10 - - - -
11/03:30am 15.9 WSW 4 5 1015.7 - 0.0 - Partly cloudy 10 - - - -
11/03:00am 16.0 SW 6 7 1015.9 - 0.0 - Partly cloudy 10 - - - -
11/02:30am 15.9 WSW 5 6 1016.2 - 0.0 - Partly cloudy 10 - - - -
11/02:00am 16.0 SW 6 7 1016.4 - 0.0 - Partly cloudy 10 - - - -
11/01:30am 16.5 SW 6 7 1016.5 - 0.0 - Partly cloudy 10 - - - -
11/01:00am 16.4 SW 5 6 1016.6 - 0.0 - Partly cloudy 10 - - - -
11/12:30am 16.4 SW 5 6 1016.5 - 0.0 - Partly cloudy 10 - - - -
11/12:00am 16.2 SW 6 7 1016.5 - 0.0 - Mostly clear 10 - - - -
 
Date/Time
EDT
Temp

°C
Wind Pressure Rain
since 9am
mm
Weather Cloud Vis
km
Sea
Height
m
Swell
Dir
 
Speed
knots
Gust
knots
hPa Trend Height
m
Period
s
Dir
10/11:30pm 16.4 SW 6 7 1016.5 - 0.0 - Partly cloudy 10 - - - -
10/11:00pm 16.7 SW 5 6 1016.6 - 0.0 - Partly cloudy 10 - - - -
10/10:30pm 16.9 SW 7 8 1016.6 - 0.0 - Partly cloudy 10 - - - -
10/10:00pm 17.4 WSW 5 7 1016.4 - 0.0 - Partly cloudy 10 - - - -
10/09:30pm 17.3 SW 7 9 1016.3 - 0.0 - Cloudy 10 - - - -
10/09:00pm 17.0 SW 7 10 1016.2 - 0.0 - Mostly clear 10 - - - -
10/08:30pm 17.5 SW 9 12 1016.1 - 0.0 - Partly cloudy 10 - - - -
10/08:00pm 18.0 SW 10 13 1015.8 - 0.0 - Partly cloudy 10 - - - -
10/07:30pm 18.6 SW 11 15 1015.6 - 0.0 - Partly cloudy 10 - - - -
10/07:00pm 19.4 SW 11 17 1015.3 - 0.0 - Partly cloudy 10 - - - -
10/06:30pm 19.4 SW 15 18 1015.1 - 0.0 - Partly cloudy 10 - - - -
10/06:00pm 19.6 SW 12 16 1014.9 - 0.0 - Mostly clear 10 - - - -
10/05:30pm 19.8 WSW 13 18 1015.0 - 0.0 - Partly cloudy 10 - - - -
10/05:00pm 20.5 WSW 14 17 1014.9 - 0.0 - Partly cloudy 10 - - - -
10/04:30pm 19.6 WSW 12 17 1015.0 - 0.0 - Partly cloudy 10 - - - -
10/04:00pm 19.0 WSW 13 17 1015.2 - 0.0 - Partly cloudy 10 - - - -
10/03:30pm 19.8 WSW 11 16 1015.2 - 0.0 - Partly cloudy 10 - - - -
10/03:00pm 19.7 W 12 17 1015.4 - 0.0 - Cloudy 10 - - - -
10/02:30pm 20.1 W 11 15 1015.5 - 0.0 - Partly cloudy 10 - - - -
10/02:00pm 19.5 WSW 9 14 1015.6 - 0.0 - Partly cloudy 10 - - - -
10/01:30pm 19.2 WSW 9 14 1015.8 - 0.0 - Partly cloudy 10 - - - -
10/01:00pm 19.7 W 9 15 1016.0 - 0.0 - Partly cloudy 10 - - - -
10/12:30pm 19.3 W 8 12 1016.2 - 0.0 - Partly cloudy 10 - - - -
10/12:00pm 18.7 W 8 10 1016.4 - 0.0 - Cloudy 10 - - - -
10/11:30am 19.0 WSW 8 14 1016.5 - 0.0 - Cloudy 10 - - - -
10/11:00am 18.3 WSW 7 10 1016.5 - 0.0 - Cloudy 10 - - - -
10/10:30am 18.1 SW 9 13 1016.6 - 0.0 - Cloudy 10 - - - -
10/10:00am 18.5 SW 9 14 1016.5 - 0.0 - Partly cloudy 10 - - - -
10/09:30am 17.8 SW 9 13 1016.4 - 0.0 - - 10 - - - -
10/09:00am 17.6 SW 12 16 1016.5 - 0.0 - Partly cloudy 10 - - - -
10/08:30am 17.0 SW 9 12 1016.2 - 0.0 - Cloudy 10 - - - -
10/08:00am 16.1 SW 6 8 1015.9 - 0.0 - Partly cloudy 10 - - - -
10/07:30am 12.7 CALM 0 0 1015.6 - 0.0 - Cloudy 10 - - - -
10/07:00am 12.5 SW 1 4 1015.5 - 0.0 - Partly cloudy 10 - - - -
10/06:30am 11.5 CALM 0 0 1015.4 - 0.0 - Partly cloudy 10 - - - -
10/06:00am 12.1 SSW 1 4 1015.6 - 0.0 - Partly cloudy 10 - - - -
10/05:30am 13.8 SSW 3 5 1015.5 - 0.0 - Partly cloudy 10 - - - -
10/05:00am 13.9 CALM 0 0 1015.5 - 0.0 - Cloudy 10 - - - -
10/04:30am 14.0 CALM 0 0 1015.5 - 0.0 - Partly cloudy 10 - - - -
10/04:00am 14.0 CALM 0 0 1015.7 - 0.0 - Partly cloudy 10 - - - -
10/03:30am 15.0 SW 1 4 1015.9 - 0.0 - Partly cloudy 10 - - - -
10/03:00am 13.3 CALM 0 0 1016.0 - 0.0 - Mostly cloudy 10 - - - -
10/02:30am 14.6 S 1 4 1016.2 - 0.0 - Cloudy 10 - - - -
10/02:00am 14.2 CALM 0 0 1016.6 - 0.0 - Cloudy 10 - - - -
10/01:30am 14.1 SSW 2 4 1016.8 - 0.0 - Partly cloudy 10 - - - -
10/01:00am 15.0 SSW 4 5 1017.2 - 0.0 - Partly cloudy 10 - - - -
10/12:30am 15.3 SW 4 5 1017.5 - 0.0 - Partly cloudy 10 - - - -
10/12:00am 15.6 SW 5 6 1017.5 - 0.0 - Partly cloudy 10 - - - -
 
Date/Time
EDT
Temp

°C
Wind Pressure Rain
since 9am
mm
Weather Cloud Vis
km
Sea
Height
m
Swell
Dir
 
Speed
knots
Gust
knots
hPa Trend Height
m
Period
s
Dir
09/11:30pm 15.8 SSW 5 6 1017.7 - 0.0 - Partly cloudy 10 - - - -
09/11:00pm 16.2 SSW 5 7 1017.8 - 0.0 - Partly cloudy 10 - - - -
09/10:30pm 16.3 SSW 7 9 1018.1 - 0.0 - Partly cloudy 10 - - - -
09/10:00pm 16.6 SSW 9 13 1018.4 - 0.0 - Partly cloudy 10 - - - -
09/09:30pm 15.9 SSW 7 8 1018.2 - 0.0 - Partly cloudy 10 - - - -
09/09:00pm 16.0 SSW 6 8 1018.0 - 0.0 - - 10 - - - -
09/08:30pm 16.6 SSW 8 10 1018.1 - 0.0 - - 10 - - - -
09/08:00pm 17.4 SSW 12 16 1018.2 - 0.0 - - 10 - - - -
09/07:30pm 18.1 SSW 13 17 1018.0 - 0.0 - - 10 - - - -
09/07:00pm 18.4 SSW 14 17 1018.1 - 0.0 - - 10 - - - -

Other Formats:

Comma delimited format used in spreadsheet applications
http://www.bom.gov.au/fwo/IDV60701/IDV60701.94850.axf

JavaScript Object Notation format (JSON) in row-major order
http://www.bom.gov.au/fwo/IDV60701/IDV60701.94850.json